ROMMA est une association bénévole à but non lucratif. Votre soutien est indispensable : ADHERER à ROMMA ou FAIRE un DON

Trept - (38, Isère)

Plateau de Crémieu (265 m)   Longitude: 5° 19' 27" E   Latitude: 45° 41' 15"N Station partenaire n°94
 

Détail journalier du     <<     >>

Température Precipitation Humidité Pression Vent Dir Rafale Dir. rafale
Heure (°C) (mm) (%) (hPa) (km/h) (km/h)
01:00 12.908810182N13N
02:00 12.708810182O18NO
03:00 12.608910182NNE15NO
04:00 11.909010181NNE8NO
05:00 11.609210182ONO15NNE
06:00 11.309210172NE15NNE
07:00 10.509310172NO8OSO
08:00 10.709310182OSO8SO
09:00 12.0092101805O
10:00 13.108510183NE15NE
11:00 13.808110183NE15NNO
12:00 15.307410185NNE19NO
13:00 17.406410176NE26N
14:00 18.006110179NNE29NO
15:00 17.506110178NNE32NNE
16:00 17.106010179NNE31NNE
17:00 16.406410178NNE24NE
18:00 13.8072101811NNE35N
19:00 14.906410186NE21NE
20:00 13.707210186NNE23NE
21:00 12.808010182NO8ONO
22:00 12.108310191NO6NO
23:00 11.808510192NO10NO
minuit 11.008910191NE8NO

Graphique du 08-09-2019

 

Serveur OMMA